sensor_id;sensor_type;location;lat;lon;timestamp;pressure;altitude;pressure_sealevel;temperature;humidity
55733;BME280;41637;52.364;9.910;2022-09-09T00:01:26;100185.40;;;14.05;97.11
55733;BME280;41637;52.364;9.910;2022-09-09T00:03:59;100185.73;;;14.01;97.15
55733;BME280;41637;52.364;9.910;2022-09-09T00:06:30;100184.48;;;13.97;97.37
55733;BME280;41637;52.364;9.910;2022-09-09T00:09:12;100180.79;;;13.96;97.45
55733;BME280;41637;52.364;9.910;2022-09-09T00:11:43;100176.73;;;13.93;97.24
55733;BME280;41637;52.364;9.910;2022-09-09T00:14:17;100181.84;;;13.90;97.36
55733;BME280;41637;52.364;9.910;2022-09-09T00:16:52;100185.81;;;13.87;97.41
55733;BME280;41637;52.364;9.910;2022-09-09T00:19:32;100185.63;;;13.86;97.29
55733;BME280;41637;52.364;9.910;2022-09-09T00:22:20;100185.77;;;13.86;97.23
55733;BME280;41637;52.364;9.910;2022-09-09T00:24:53;100180.00;;;13.84;97.09
55733;BME280;41637;52.364;9.910;2022-09-09T00:27:45;100182.10;;;13.83;97.26
55733;BME280;41637;52.364;9.910;2022-09-09T00:32:47;100174.68;;;13.80;97.18
55733;BME280;41637;52.364;9.910;2022-09-09T00:37:44;100181.45;;;13.79;97.05
55733;BME280;41637;52.364;9.910;2022-09-09T00:40:23;100180.17;;;13.78;97.06
55733;BME280;41637;52.364;9.910;2022-09-09T00:43:29;100180.60;;;13.77;96.91
55733;BME280;41637;52.364;9.910;2022-09-09T00:47:04;100180.96;;;13.76;96.85
55733;BME280;41637;52.364;9.910;2022-09-09T00:54:52;100168.95;;;13.70;96.81
55733;BME280;41637;52.364;9.910;2022-09-09T00:57:26;100173.81;;;13.69;96.53
55733;BME280;41637;52.364;9.910;2022-09-09T01:02:28;100178.20;;;13.65;96.77
55733;BME280;41637;52.364;9.910;2022-09-09T01:05:05;100178.04;;;13.62;96.62
55733;BME280;41637;52.364;9.910;2022-09-09T01:07:35;100183.86;;;13.60;96.61
55733;BME280;41637;52.364;9.910;2022-09-09T01:10:09;100182.34;;;13.57;96.93
55733;BME280;41637;52.364;9.910;2022-09-09T01:12:42;100187.23;;;13.55;96.88
55733;BME280;41637;52.364;9.910;2022-09-09T01:15:28;100185.61;;;13.54;96.74
55733;BME280;41637;52.364;9.910;2022-09-09T01:21:25;100189.54;;;13.52;96.93
55733;BME280;41637;52.364;9.910;2022-09-09T01:23:41;100181.90;;;13.52;96.93
55733;BME280;41637;52.364;9.910;2022-09-09T01:29:00;100175.52;;;13.52;96.76
55733;BME280;41637;52.364;9.910;2022-09-09T01:31:34;100172.06;;;13.53;96.78
55733;BME280;41637;52.364;9.910;2022-09-09T01:34:09;100169.48;;;13.53;96.74
55733;BME280;41637;52.364;9.910;2022-09-09T01:39:10;100170.76;;;13.53;96.45
55733;BME280;41637;52.364;9.910;2022-09-09T01:41:37;100166.82;;;13.53;96.43
55733;BME280;41637;52.364;9.910;2022-09-09T01:44:05;100169.15;;;13.53;96.39
55733;BME280;41637;52.364;9.910;2022-09-09T01:46:33;100168.84;;;13.52;96.34
55733;BME280;41637;52.364;9.910;2022-09-09T01:49:02;100169.27;;;13.50;96.55
55733;BME280;41637;52.364;9.910;2022-09-09T01:51:30;100170.52;;;13.49;96.82
55733;BME280;41637;52.364;9.910;2022-09-09T01:53:57;100162.64;;;13.48;96.67
55733;BME280;41637;52.364;9.910;2022-09-09T01:56:53;100165.84;;;13.45;96.61
55733;BME280;41637;52.364;9.910;2022-09-09T01:59:45;100171.17;;;13.47;96.63
55733;BME280;41637;52.364;9.910;2022-09-09T02:02:23;100175.10;;;13.49;96.45
55733;BME280;41637;52.364;9.910;2022-09-09T02:04:59;100174.29;;;13.49;96.43
55733;BME280;41637;52.364;9.910;2022-09-09T02:07:40;100178.55;;;13.49;96.37
55733;BME280;41637;52.364;9.910;2022-09-09T02:10:21;100186.95;;;13.50;96.34
55733;BME280;41637;52.364;9.910;2022-09-09T02:13:05;100186.79;;;13.52;96.58
55733;BME280;41637;52.364;9.910;2022-09-09T02:15:37;100179.89;;;13.54;96.76
55733;BME280;41637;52.364;9.910;2022-09-09T02:18:10;100177.97;;;13.56;96.43
55733;BME280;41637;52.364;9.910;2022-09-09T02:20:39;100177.46;;;13.57;96.39
55733;BME280;41637;52.364;9.910;2022-09-09T02:23:07;100176.67;;;13.58;96.34
55733;BME280;41637;52.364;9.910;2022-09-09T02:25:36;100172.46;;;13.57;96.40
55733;BME280;41637;52.364;9.910;2022-09-09T02:28:06;100176.30;;;13.58;96.38
55733;BME280;41637;52.364;9.910;2022-09-09T02:30:34;100175.08;;;13.58;96.43
55733;BME280;41637;52.364;9.910;2022-09-09T02:33:04;100179.89;;;13.58;96.25
55733;BME280;41637;52.364;9.910;2022-09-09T02:35:34;100181.04;;;13.60;96.44
55733;BME280;41637;52.364;9.910;2022-09-09T02:38:07;100178.90;;;13.62;96.39
55733;BME280;41637;52.364;9.910;2022-09-09T02:40:37;100170.69;;;13.64;96.45
55733;BME280;41637;52.364;9.910;2022-09-09T02:43:04;100168.73;;;13.63;96.11
55733;BME280;41637;52.364;9.910;2022-09-09T02:45:47;100168.19;;;13.67;96.19
55733;BME280;41637;52.364;9.910;2022-09-09T02:48:24;100168.14;;;13.69;96.24
55733;BME280;41637;52.364;9.910;2022-09-09T02:50:54;100165.19;;;13.70;96.20
55733;BME280;41637;52.364;9.910;2022-09-09T02:53:31;100164.40;;;13.72;96.09
55733;BME280;41637;52.364;9.910;2022-09-09T02:56:19;100165.75;;;13.75;96.19
55733;BME280;41637;52.364;9.910;2022-09-09T02:58:47;100158.61;;;13.77;95.96
55733;BME280;41637;52.364;9.910;2022-09-09T03:01:13;100158.94;;;13.80;96.05
55733;BME280;41637;52.364;9.910;2022-09-09T03:03:41;100165.98;;;13.83;96.08
55733;BME280;41637;52.364;9.910;2022-09-09T03:06:08;100168.30;;;13.87;96.17
55733;BME280;41637;52.364;9.910;2022-09-09T03:08:36;100167.96;;;13.91;96.02
55733;BME280;41637;52.364;9.910;2022-09-09T03:11:07;100163.89;;;13.95;95.93
55733;BME280;41637;52.364;9.910;2022-09-09T03:13:34;100162.83;;;13.97;95.79
55733;BME280;41637;52.364;9.910;2022-09-09T03:16:01;100171.42;;;13.99;95.91
55733;BME280;41637;52.364;9.910;2022-09-09T03:18:32;100174.49;;;14.01;95.94
55733;BME280;41637;52.364;9.910;2022-09-09T03:20:59;100175.52;;;14.04;95.90
55733;BME280;41637;52.364;9.910;2022-09-09T03:23:26;100173.63;;;14.06;95.87
55733;BME280;41637;52.364;9.910;2022-09-09T03:25:52;100172.66;;;14.10;95.91
55733;BME280;41637;52.364;9.910;2022-09-09T03:28:23;100166.66;;;14.12;95.75
55733;BME280;41637;52.364;9.910;2022-09-09T03:30:51;100170.88;;;14.15;95.69
55733;BME280;41637;52.364;9.910;2022-09-09T03:33:18;100167.95;;;14.18;95.67
55733;BME280;41637;52.364;9.910;2022-09-09T03:35:46;100173.06;;;14.19;95.88
55733;BME280;41637;52.364;9.910;2022-09-09T03:38:15;100174.91;;;14.21;95.69
55733;BME280;41637;52.364;9.910;2022-09-09T03:40:49;100173.14;;;14.23;95.68
55733;BME280;41637;52.364;9.910;2022-09-09T03:43:16;100174.41;;;14.24;95.54
55733;BME280;41637;52.364;9.910;2022-09-09T03:45:46;100172.89;;;14.25;95.64
55733;BME280;41637;52.364;9.910;2022-09-09T03:48:14;100170.96;;;14.24;95.57
55733;BME280;41637;52.364;9.910;2022-09-09T03:50:46;100173.10;;;14.24;95.83
55733;BME280;41637;52.364;9.910;2022-09-09T03:53:14;100170.23;;;14.25;95.93
55733;BME280;41637;52.364;9.910;2022-09-09T03:55:45;100170.77;;;14.26;95.92
55733;BME280;41637;52.364;9.910;2022-09-09T03:58:14;100170.30;;;14.27;95.95
55733;BME280;41637;52.364;9.910;2022-09-09T04:00:41;100168.65;;;14.29;95.98
55733;BME280;41637;52.364;9.910;2022-09-09T04:03:11;100169.75;;;14.31;95.97
55733;BME280;41637;52.364;9.910;2022-09-09T04:05:41;100169.73;;;14.34;95.99
55733;BME280;41637;52.364;9.910;2022-09-09T04:08:09;100174.27;;;14.36;96.07
55733;BME280;41637;52.364;9.910;2022-09-09T04:10:36;100172.67;;;14.38;96.16
55733;BME280;41637;52.364;9.910;2022-09-09T04:13:04;100175.94;;;14.40;96.09
55733;BME280;41637;52.364;9.910;2022-09-09T04:15:31;100179.84;;;14.40;95.80
55733;BME280;41637;52.364;9.910;2022-09-09T04:17:58;100178.77;;;14.40;95.74
55733;BME280;41637;52.364;9.910;2022-09-09T04:20:25;100177.13;;;14.40;95.77
55733;BME280;41637;52.364;9.910;2022-09-09T04:22:52;100170.31;;;14.41;96.12
55733;BME280;41637;52.364;9.910;2022-09-09T04:25:19;100170.03;;;14.40;95.95
55733;BME280;41637;52.364;9.910;2022-09-09T04:27:46;100172.55;;;14.37;96.05
55733;BME280;41637;52.364;9.910;2022-09-09T04:30:13;100173.80;;;14.35;96.48
55733;BME280;41637;52.364;9.910;2022-09-09T04:32:40;100177.41;;;14.35;96.78
55733;BME280;41637;52.364;9.910;2022-09-09T04:35:07;100178.64;;;14.38;97.18
55733;BME280;41637;52.364;9.910;2022-09-09T04:37:34;100181.07;;;14.43;97.15
55733;BME280;41637;52.364;9.910;2022-09-09T04:40:01;100171.84;;;14.48;97.06
55733;BME280;41637;52.364;9.910;2022-09-09T04:42:29;100176.95;;;14.53;96.98
55733;BME280;41637;52.364;9.910;2022-09-09T04:44:56;100179.23;;;14.59;96.87
55733;BME280;41637;52.364;9.910;2022-09-09T04:47:23;100179.88;;;14.63;96.59
55733;BME280;41637;52.364;9.910;2022-09-09T04:49:50;100179.32;;;14.67;96.29
55733;BME280;41637;52.364;9.910;2022-09-09T04:52:18;100182.61;;;14.73;96.06
55733;BME280;41637;52.364;9.910;2022-09-09T04:54:45;100184.27;;;14.78;95.87
55733;BME280;41637;52.364;9.910;2022-09-09T04:57:12;100188.60;;;14.82;95.81
55733;BME280;41637;52.364;9.910;2022-09-09T04:59:44;100184.66;;;14.86;95.79
55733;BME280;41637;52.364;9.910;2022-09-09T05:02:12;100188.42;;;14.90;95.63
55733;BME280;41637;52.364;9.910;2022-09-09T05:04:39;100186.15;;;14.92;95.65
55733;BME280;41637;52.364;9.910;2022-09-09T05:07:07;100187.44;;;14.94;95.54
55733;BME280;41637;52.364;9.910;2022-09-09T05:09:34;100191.23;;;14.98;95.40
55733;BME280;41637;52.364;9.910;2022-09-09T05:12:01;100195.82;;;15.00;95.31
55733;BME280;41637;52.364;9.910;2022-09-09T05:14:29;100196.15;;;15.05;95.52
55733;BME280;41637;52.364;9.910;2022-09-09T05:16:56;100197.89;;;15.10;95.33
55733;BME280;41637;52.364;9.910;2022-09-09T05:19:24;100198.66;;;15.15;95.34
55733;BME280;41637;52.364;9.910;2022-09-09T05:21:51;100193.14;;;15.19;95.26
55733;BME280;41637;52.364;9.910;2022-09-09T05:24:18;100192.76;;;15.21;95.14
55733;BME280;41637;52.364;9.910;2022-09-09T05:26:45;100198.67;;;15.21;94.89
55733;BME280;41637;52.364;9.910;2022-09-09T05:29:11;100198.23;;;15.19;94.87
55733;BME280;41637;52.364;9.910;2022-09-09T05:31:38;100195.45;;;15.19;94.86
55733;BME280;41637;52.364;9.910;2022-09-09T05:34:05;100197.55;;;15.18;94.92
55733;BME280;41637;52.364;9.910;2022-09-09T05:36:32;100191.46;;;15.18;95.12
55733;BME280;41637;52.364;9.910;2022-09-09T05:38:59;100199.92;;;15.20;95.18
55733;BME280;41637;52.364;9.910;2022-09-09T05:41:27;100195.38;;;15.23;95.41
55733;BME280;41637;52.364;9.910;2022-09-09T05:43:55;100202.36;;;15.27;95.27
55733;BME280;41637;52.364;9.910;2022-09-09T05:46:23;100208.13;;;15.31;95.08
55733;BME280;41637;52.364;9.910;2022-09-09T05:48:52;100212.22;;;15.33;94.98
55733;BME280;41637;52.364;9.910;2022-09-09T05:51:26;100213.20;;;15.35;94.78
55733;BME280;41637;52.364;9.910;2022-09-09T05:53:54;100207.46;;;15.38;94.68
55733;BME280;41637;52.364;9.910;2022-09-09T05:56:23;100208.17;;;15.40;94.80
55733;BME280;41637;52.364;9.910;2022-09-09T05:58:52;100207.83;;;15.44;94.82
55733;BME280;41637;52.364;9.910;2022-09-09T06:01:31;100208.98;;;15.48;94.67
55733;BME280;41637;52.364;9.910;2022-09-09T06:03:59;100204.27;;;15.50;94.42
55733;BME280;41637;52.364;9.910;2022-09-09T06:06:30;100209.02;;;15.54;94.62
55733;BME280;41637;52.364;9.910;2022-09-09T06:08:57;100210.60;;;15.56;94.47
55733;BME280;41637;52.364;9.910;2022-09-09T06:11:26;100213.29;;;15.58;94.21
55733;BME280;41637;52.364;9.910;2022-09-09T06:13:54;100215.75;;;15.60;94.32
55733;BME280;41637;52.364;9.910;2022-09-09T06:16:22;100222.05;;;15.63;94.33
55733;BME280;41637;52.364;9.910;2022-09-09T06:18:50;100221.73;;;15.69;94.44
55733;BME280;41637;52.364;9.910;2022-09-09T06:21:28;100226.38;;;15.74;94.24
55733;BME280;41637;52.364;9.910;2022-09-09T06:23:56;100224.15;;;15.79;94.16
55733;BME280;41637;52.364;9.910;2022-09-09T06:26:35;100229.19;;;15.84;94.16
55733;BME280;41637;52.364;9.910;2022-09-09T06:29:03;100224.91;;;15.93;94.20
55733;BME280;41637;52.364;9.910;2022-09-09T06:31:32;100225.16;;;16.01;94.00
55733;BME280;41637;52.364;9.910;2022-09-09T06:34:01;100224.67;;;16.10;93.83
55733;BME280;41637;52.364;9.910;2022-09-09T06:36:30;100224.44;;;16.19;93.75
55733;BME280;41637;52.364;9.910;2022-09-09T06:38:58;100221.25;;;16.29;93.51
55733;BME280;41637;52.364;9.910;2022-09-09T06:41:27;100221.04;;;16.42;93.45
55733;BME280;41637;52.364;9.910;2022-09-09T06:43:55;100219.73;;;16.57;93.65
55733;BME280;41637;52.364;9.910;2022-09-09T06:46:31;100221.72;;;16.75;93.62
55733;BME280;41637;52.364;9.910;2022-09-09T06:48:59;100218.50;;;16.94;93.31
55733;BME280;41637;52.364;9.910;2022-09-09T06:51:29;100219.19;;;17.11;92.45
55733;BME280;41637;52.364;9.910;2022-09-09T06:54:00;100218.58;;;17.28;91.79
55733;BME280;41637;52.364;9.910;2022-09-09T06:56:30;100213.16;;;17.46;91.22
55733;BME280;41637;52.364;9.910;2022-09-09T06:59:00;100215.88;;;17.68;90.40
55733;BME280;41637;52.364;9.910;2022-09-09T07:01:36;100215.27;;;17.92;89.93
55733;BME280;41637;52.364;9.910;2022-09-09T07:04:04;100208.02;;;18.15;89.11
55733;BME280;41637;52.364;9.910;2022-09-09T07:06:36;100204.76;;;18.29;87.72
55733;BME280;41637;52.364;9.910;2022-09-09T07:09:05;100201.98;;;18.36;86.17
55733;BME280;41637;52.364;9.910;2022-09-09T07:11:36;100196.09;;;18.39;85.66
55733;BME280;41637;52.364;9.910;2022-09-09T07:14:04;100196.60;;;18.38;84.75
55733;BME280;41637;52.364;9.910;2022-09-09T07:16:31;100203.44;;;18.31;83.26
55733;BME280;41637;52.364;9.910;2022-09-09T07:19:00;100207.68;;;18.17;82.27
55733;BME280;41637;52.364;9.910;2022-09-09T07:21:27;100211.23;;;18.04;82.76
55733;BME280;41637;52.364;9.910;2022-09-09T07:23:55;100215.84;;;17.94;82.94
55733;BME280;41637;52.364;9.910;2022-09-09T07:26:24;100217.90;;;17.90;83.62
55733;BME280;41637;52.364;9.910;2022-09-09T07:28:52;100220.75;;;17.90;84.01
55733;BME280;41637;52.364;9.910;2022-09-09T07:31:31;100224.85;;;17.94;84.35
55733;BME280;41637;52.364;9.910;2022-09-09T07:33:59;100224.84;;;18.01;84.68
55733;BME280;41637;52.364;9.910;2022-09-09T07:36:32;100223.84;;;18.12;84.81
55733;BME280;41637;52.364;9.910;2022-09-09T07:39:05;100218.52;;;18.25;84.08
55733;BME280;41637;52.364;9.910;2022-09-09T07:44:08;100227.79;;;18.42;82.58
55733;BME280;41637;52.364;9.910;2022-09-09T07:46:36;100229.02;;;18.49;81.35
55733;BME280;41637;52.364;9.910;2022-09-09T07:49:03;100222.55;;;18.57;81.58
55733;BME280;41637;52.364;9.910;2022-09-09T07:51:36;100223.67;;;18.63;80.01
55733;BME280;41637;52.364;9.910;2022-09-09T07:54:05;100222.36;;;18.68;79.79
55733;BME280;41637;52.364;9.910;2022-09-09T07:56:33;100225.54;;;18.76;80.10
55733;BME280;41637;52.364;9.910;2022-09-09T07:59:00;100230.16;;;18.84;79.59
55733;BME280;41637;52.364;9.910;2022-09-09T08:01:28;100230.74;;;18.89;78.45
55733;BME280;41637;52.364;9.910;2022-09-09T08:04:02;100231.14;;;18.97;78.35
55733;BME280;41637;52.364;9.910;2022-09-09T08:06:49;100232.02;;;19.07;78.41
55733;BME280;41637;52.364;9.910;2022-09-09T08:09:16;100229.52;;;19.21;77.99
55733;BME280;41637;52.364;9.910;2022-09-09T08:11:43;100234.95;;;19.30;76.46
55733;BME280;41637;52.364;9.910;2022-09-09T08:14:11;100235.49;;;19.42;76.23
55733;BME280;41637;52.364;9.910;2022-09-09T08:16:44;100241.74;;;19.52;74.89
55733;BME280;41637;52.364;9.910;2022-09-09T08:19:11;100243.92;;;19.57;74.50
55733;BME280;41637;52.364;9.910;2022-09-09T08:21:39;100236.38;;;19.60;73.72
55733;BME280;41637;52.364;9.910;2022-09-09T08:24:08;100240.08;;;19.59;73.20
55733;BME280;41637;52.364;9.910;2022-09-09T08:26:39;100239.86;;;19.59;73.12
55733;BME280;41637;52.364;9.910;2022-09-09T08:29:07;100240.48;;;19.61;73.28
55733;BME280;41637;52.364;9.910;2022-09-09T08:31:38;100246.42;;;19.69;73.45
55733;BME280;41637;52.364;9.910;2022-09-09T08:34:06;100246.89;;;19.84;72.87
55733;BME280;41637;52.364;9.910;2022-09-09T08:36:39;100244.19;;;19.99;72.64
55733;BME280;41637;52.364;9.910;2022-09-09T08:39:10;100244.05;;;20.14;72.36
55733;BME280;41637;52.364;9.910;2022-09-09T08:52:19;100246.14;;;21.17;68.76
55733;BME280;41637;52.364;9.910;2022-09-09T08:54:48;100248.05;;;21.25;67.35
55733;BME280;41637;52.364;9.910;2022-09-09T08:57:25;100250.36;;;21.24;66.71
55733;BME280;41637;52.364;9.910;2022-09-09T08:59:55;100258.63;;;21.26;65.65
55733;BME280;41637;52.364;9.910;2022-09-09T09:02:27;100259.93;;;21.26;65.03
55733;BME280;41637;52.364;9.910;2022-09-09T09:05:23;100259.11;;;21.27;65.83
55733;BME280;41637;52.364;9.910;2022-09-09T09:10:49;100262.63;;;21.26;63.74
55733;BME280;41637;52.364;9.910;2022-09-09T09:15:56;100265.75;;;21.38;63.78
55733;BME280;41637;52.364;9.910;2022-09-09T09:18:25;100264.95;;;21.44;63.67
55733;BME280;41637;52.364;9.910;2022-09-09T09:23:39;100266.08;;;21.65;62.63
55733;BME280;41637;52.364;9.910;2022-09-09T09:26:09;100261.67;;;21.67;62.92
55733;BME280;41637;52.364;9.910;2022-09-09T09:28:40;100263.67;;;21.65;62.92
55733;BME280;41637;52.364;9.910;2022-09-09T09:31:10;100263.23;;;21.59;62.72
55733;BME280;41637;52.364;9.910;2022-09-09T09:33:47;100262.89;;;21.64;63.40
55733;BME280;41637;52.364;9.910;2022-09-09T09:36:16;100262.13;;;21.63;62.72
55733;BME280;41637;52.364;9.910;2022-09-09T09:38:59;100260.94;;;21.70;62.60
55733;BME280;41637;52.364;9.910;2022-09-09T09:41:47;100262.02;;;21.86;62.11
55733;BME280;41637;52.364;9.910;2022-09-09T09:44:40;100261.97;;;21.95;61.11
55733;BME280;41637;52.364;9.910;2022-09-09T09:47:18;100263.65;;;22.08;60.92
55733;BME280;41637;52.364;9.910;2022-09-09T09:49:59;100261.98;;;22.08;60.13
55733;BME280;41637;52.364;9.910;2022-09-09T09:52:35;100263.48;;;22.05;60.15
55733;BME280;41637;52.364;9.910;2022-09-09T09:55:04;100260.13;;;22.05;60.89
55733;BME280;41637;52.364;9.910;2022-09-09T09:57:38;100257.91;;;22.04;61.31
55733;BME280;41637;52.364;9.910;2022-09-09T10:00:20;100260.02;;;21.94;59.99
55733;BME280;41637;52.364;9.910;2022-09-09T10:02:49;100255.63;;;21.90;60.38
55733;BME280;41637;52.364;9.910;2022-09-09T10:05:35;100257.83;;;21.88;59.78
55733;BME280;41637;52.364;9.910;2022-09-09T10:13:27;100244.94;;;22.15;59.04
55733;BME280;41637;52.364;9.910;2022-09-09T10:16:20;100244.02;;;22.31;59.00
55733;BME280;41637;52.364;9.910;2022-09-09T10:19:05;100245.02;;;22.24;57.96
55733;BME280;41637;52.364;9.910;2022-09-09T10:35:10;100232.98;;;22.44;58.86
55733;BME280;41637;52.364;9.910;2022-09-09T10:37:50;100232.48;;;22.25;58.32
55733;BME280;41637;52.364;9.910;2022-09-09T10:42:59;100232.53;;;21.86;59.43
55733;BME280;41637;52.364;9.910;2022-09-09T10:46:13;100236.38;;;21.68;59.81
55733;BME280;41637;52.364;9.910;2022-09-09T10:48:46;100238.97;;;21.55;60.69
55733;BME280;41637;52.364;9.910;2022-09-09T10:51:23;100238.70;;;21.42;61.22
55733;BME280;41637;52.364;9.910;2022-09-09T10:54:09;100244.73;;;21.29;60.95
55733;BME280;41637;52.364;9.910;2022-09-09T10:56:41;100246.61;;;21.16;60.96
55733;BME280;41637;52.364;9.910;2022-09-09T10:59:24;100244.41;;;21.10;61.84
55733;BME280;41637;52.364;9.910;2022-09-09T11:02:40;100239.38;;;21.09;62.25
55733;BME280;41637;52.364;9.910;2022-09-09T11:11:29;100228.64;;;21.77;62.19
55733;BME280;41637;52.364;9.910;2022-09-09T11:14:07;100226.95;;;22.34;61.75
55733;BME280;41637;52.364;9.910;2022-09-09T11:19:14;100234.92;;;22.80;58.99
55733;BME280;41637;52.364;9.910;2022-09-09T11:21:48;100220.16;;;22.87;57.24
55733;BME280;41637;52.364;9.910;2022-09-09T11:24:27;100210.14;;;22.71;55.91
55733;BME280;41637;52.364;9.910;2022-09-09T11:37:50;100255.16;;;21.59;59.51
55733;BME280;41637;52.364;9.910;2022-09-09T11:40:25;100268.09;;;21.35;60.63
55733;BME280;41637;52.364;9.910;2022-09-09T11:43:03;100273.48;;;21.09;61.67
55733;BME280;41637;52.364;9.910;2022-09-09T11:45:34;100284.50;;;20.68;59.79
55733;BME280;41637;52.364;9.910;2022-09-09T11:48:04;100279.52;;;20.32;59.03
55733;BME280;41637;52.364;9.910;2022-09-09T11:50:36;100280.95;;;19.99;58.62
55733;BME280;41637;52.364;9.910;2022-09-09T11:55:44;100272.77;;;19.32;61.98
55733;BME280;41637;52.364;9.910;2022-09-09T12:00:44;100267.29;;;18.88;65.87
55733;BME280;41637;52.364;9.910;2022-09-09T12:03:42;100274.27;;;18.68;66.87
55733;BME280;41637;52.364;9.910;2022-09-09T12:06:25;100271.71;;;18.47;68.06
55733;BME280;41637;52.364;9.910;2022-09-09T12:08:58;100269.20;;;18.35;68.72
55733;BME280;41637;52.364;9.910;2022-09-09T12:11:32;100267.96;;;18.26;68.30
55733;BME280;41637;52.364;9.910;2022-09-09T12:14:02;100264.37;;;18.22;68.19
55733;BME280;41637;52.364;9.910;2022-09-09T12:16:34;100268.59;;;18.20;68.69
55733;BME280;41637;52.364;9.910;2022-09-09T12:24:16;100271.98;;;18.26;68.19
55733;BME280;41637;52.364;9.910;2022-09-09T12:26:59;100271.41;;;18.34;69.17
55733;BME280;41637;52.364;9.910;2022-09-09T12:30:03;100267.27;;;18.50;69.89
55733;BME280;41637;52.364;9.910;2022-09-09T12:32:34;100263.08;;;18.74;70.20
55733;BME280;41637;52.364;9.910;2022-09-09T12:35:14;100255.89;;;18.97;70.16
55733;BME280;41637;52.364;9.910;2022-09-09T12:40:19;100265.45;;;19.54;69.73
55733;BME280;41637;52.364;9.910;2022-09-09T12:42:46;100263.39;;;19.86;68.91
55733;BME280;41637;52.364;9.910;2022-09-09T12:45:20;100265.36;;;20.16;68.35
55733;BME280;41637;52.364;9.910;2022-09-09T12:47:52;100265.84;;;20.45;67.41
55733;BME280;41637;52.364;9.910;2022-09-09T12:50:27;100265.48;;;20.67;66.62
55733;BME280;41637;52.364;9.910;2022-09-09T12:52:57;100263.73;;;20.80;65.00
55733;BME280;41637;52.364;9.910;2022-09-09T12:55:28;100258.98;;;20.86;64.28
55733;BME280;41637;52.364;9.910;2022-09-09T12:57:57;100254.34;;;21.00;64.24
55733;BME280;41637;52.364;9.910;2022-09-09T13:00:26;100258.61;;;21.06;62.93
55733;BME280;41637;52.364;9.910;2022-09-09T13:03:01;100257.08;;;21.05;62.90
55733;BME280;41637;52.364;9.910;2022-09-09T13:05:35;100259.98;;;21.09;63.22
55733;BME280;41637;52.364;9.910;2022-09-09T13:08:04;100257.33;;;21.15;63.73
55733;BME280;41637;52.364;9.910;2022-09-09T13:10:34;100256.47;;;21.20;63.23
55733;BME280;41637;52.364;9.910;2022-09-09T13:13:39;100254.30;;;21.19;62.50
55733;BME280;41637;52.364;9.910;2022-09-09T13:16:19;100252.65;;;21.16;62.67
55733;BME280;41637;52.364;9.910;2022-09-09T13:18:46;100250.63;;;21.18;63.03
55733;BME280;41637;52.364;9.910;2022-09-09T13:21:13;100247.05;;;21.23;63.16
55733;BME280;41637;52.364;9.910;2022-09-09T13:23:41;100243.59;;;21.22;61.85
55733;BME280;41637;52.364;9.910;2022-09-09T13:26:25;100239.94;;;21.19;61.10
55733;BME280;41637;52.364;9.910;2022-09-09T13:29:08;100233.77;;;21.29;61.60
55733;BME280;41637;52.364;9.910;2022-09-09T13:31:41;100229.51;;;21.97;60.53
55733;BME280;41637;52.364;9.910;2022-09-09T13:34:22;100227.13;;;22.82;58.57
55733;BME280;41637;52.364;9.910;2022-09-09T13:37:01;100220.36;;;24.06;56.15
55733;BME280;41637;52.364;9.910;2022-09-09T13:39:29;100213.65;;;25.17;53.07
55733;BME280;41637;52.364;9.910;2022-09-09T13:41:55;100213.10;;;25.94;50.21
55733;BME280;41637;52.364;9.910;2022-09-09T13:44:40;100210.40;;;26.62;47.61
55733;BME280;41637;52.364;9.910;2022-09-09T13:47:22;100210.71;;;27.00;46.62
55733;BME280;41637;52.364;9.910;2022-09-09T13:49:56;100211.03;;;27.04;45.83
55733;BME280;41637;52.364;9.910;2022-09-09T13:52:23;100211.88;;;26.73;44.53
55733;BME280;41637;52.364;9.910;2022-09-09T13:54:51;100210.56;;;26.41;45.46
55733;BME280;41637;52.364;9.910;2022-09-09T13:57:21;100210.05;;;26.13;46.30
55733;BME280;41637;52.364;9.910;2022-09-09T13:59:48;100207.59;;;25.89;47.38
55733;BME280;41637;52.364;9.910;2022-09-09T14:02:32;100204.70;;;25.64;48.25
55733;BME280;41637;52.364;9.910;2022-09-09T14:05:00;100207.36;;;25.42;48.73
55733;BME280;41637;52.364;9.910;2022-09-09T14:07:26;100213.02;;;25.13;48.79
55733;BME280;41637;52.364;9.910;2022-09-09T14:09:53;100218.02;;;24.82;49.16
55733;BME280;41637;52.364;9.910;2022-09-09T14:12:20;100211.17;;;24.60;49.40
55733;BME280;41637;52.364;9.910;2022-09-09T14:14:46;100212.23;;;24.77;50.19
55733;BME280;41637;52.364;9.910;2022-09-09T14:17:13;100208.81;;;25.37;49.93
55733;BME280;41637;52.364;9.910;2022-09-09T14:19:41;100205.71;;;26.16;48.66
55733;BME280;41637;52.364;9.910;2022-09-09T14:22:08;100199.32;;;27.27;45.90
55733;BME280;41637;52.364;9.910;2022-09-09T14:24:35;100196.19;;;28.44;43.47
55733;BME280;41637;52.364;9.910;2022-09-09T14:27:02;100190.88;;;29.46;41.47
55733;BME280;41637;52.364;9.910;2022-09-09T14:29:29;100184.80;;;30.61;40.05
55733;BME280;41637;52.364;9.910;2022-09-09T14:31:55;100178.54;;;31.78;37.97
55733;BME280;41637;52.364;9.910;2022-09-09T14:34:22;100178.74;;;32.77;35.60
55733;BME280;41637;52.364;9.910;2022-09-09T14:36:48;100180.35;;;33.45;32.98
55733;BME280;41637;52.364;9.910;2022-09-09T14:39:15;100183.61;;;34.02;33.11
55733;BME280;41637;52.364;9.910;2022-09-09T14:41:42;100185.55;;;34.87;31.75
55733;BME280;41637;52.364;9.910;2022-09-09T14:44:09;100188.15;;;35.46;30.71
55733;BME280;41637;52.364;9.910;2022-09-09T14:46:36;100186.45;;;34.96;30.99
55733;BME280;41637;52.364;9.910;2022-09-09T14:49:03;100182.20;;;34.63;31.29
55733;BME280;41637;52.364;9.910;2022-09-09T14:51:30;100181.70;;;34.86;30.29
55733;BME280;41637;52.364;9.910;2022-09-09T14:53:58;100181.11;;;35.21;29.11